createdAt,value
2022-11-14T00:00:00.350Z,7.35
2022-11-14T00:02:26.939Z,7.35
2022-11-14T00:04:53.625Z,7.23
2022-11-14T00:07:19.951Z,7.27
2022-11-14T00:09:46.248Z,7.24
2022-11-14T00:12:12.817Z,7.22
2022-11-14T00:14:39.114Z,7.13
2022-11-14T00:17:05.531Z,7.12
2022-11-14T00:19:31.833Z,7.14
2022-11-14T00:22:00.093Z,7.11
2022-11-14T00:24:26.364Z,6.95
2022-11-14T00:26:52.675Z,6.88
2022-11-14T00:29:18.948Z,6.90
2022-11-14T00:31:45.280Z,6.97
2022-11-14T00:34:11.648Z,6.92
2022-11-14T00:36:37.986Z,6.88
2022-11-14T00:39:04.869Z,6.91
2022-11-14T00:41:31.236Z,6.85
2022-11-14T00:43:57.519Z,6.82
2022-11-14T00:46:23.785Z,6.89
2022-11-14T00:48:50.081Z,6.91
2022-11-14T00:51:16.341Z,6.87
2022-11-14T00:53:42.621Z,6.83
2022-11-14T00:56:08.998Z,6.74
2022-11-14T00:58:35.356Z,6.61
2022-11-14T01:01:01.727Z,6.59
2022-11-14T01:03:28.175Z,6.61
2022-11-14T01:05:54.471Z,6.64
2022-11-14T01:08:21.038Z,6.66
2022-11-14T01:10:49.658Z,6.61
2022-11-14T01:13:17.851Z,6.66
2022-11-14T01:15:46.732Z,6.62
2022-11-14T01:18:16.343Z,6.62
2022-11-14T01:20:44.522Z,6.64
2022-11-14T01:23:12.704Z,6.65
2022-11-14T01:25:40.060Z,6.58
2022-11-14T01:28:08.296Z,6.52
2022-11-14T01:30:34.902Z,6.55
2022-11-14T01:33:01.352Z,6.65
2022-11-14T01:35:27.825Z,6.62
2022-11-14T01:37:54.165Z,6.57
2022-11-14T01:40:20.859Z,6.57
2022-11-14T01:43:22.783Z,6.60
2022-11-14T01:45:55.767Z,6.56
2022-11-14T01:48:37.473Z,6.61
2022-11-14T01:51:29.179Z,6.55
2022-11-14T01:53:58.585Z,6.49
2022-11-14T01:56:33.916Z,6.47
2022-11-14T01:59:15.278Z,6.45
2022-11-14T02:01:47.036Z,6.49
2022-11-14T02:04:18.422Z,6.49
2022-11-14T02:06:46.546Z,6.49
2022-11-14T02:09:13.159Z,6.52
2022-11-14T02:11:43.216Z,6.43
2022-11-14T02:14:09.662Z,6.44
2022-11-14T02:16:35.987Z,6.46
2022-11-14T02:19:02.335Z,6.36
2022-11-14T02:21:28.615Z,6.46
2022-11-14T02:23:54.962Z,6.51
2022-11-14T02:26:22.659Z,6.46
2022-11-14T02:28:49.434Z,6.50
2022-11-14T02:31:16.323Z,6.48
2022-11-14T02:33:42.963Z,6.50
2022-11-14T02:36:09.727Z,6.53
2022-11-14T02:38:36.586Z,6.50
2022-11-14T02:41:02.920Z,6.51
2022-11-14T02:43:29.243Z,6.50
2022-11-14T02:45:55.595Z,6.46
2022-11-14T02:48:21.869Z,6.48
2022-11-14T02:50:49.083Z,6.47
2022-11-14T02:53:15.553Z,6.52
2022-11-14T02:55:41.854Z,6.51
2022-11-14T02:58:08.221Z,6.46
2022-11-14T03:00:34.968Z,6.46
2022-11-14T03:03:03.028Z,6.49
2022-11-14T03:05:29.343Z,6.43
2022-11-14T03:07:56.304Z,6.42
2022-11-14T03:10:23.787Z,6.39
2022-11-14T03:12:54.831Z,6.36
2022-11-14T03:15:21.348Z,6.33
2022-11-14T03:17:47.652Z,6.32
2022-11-14T03:20:14.021Z,6.41
2022-11-14T03:22:40.435Z,6.41
2022-11-14T03:25:07.209Z,6.40
2022-11-14T03:27:33.552Z,6.39
2022-11-14T03:29:59.860Z,6.41
2022-11-14T03:32:26.272Z,6.50
2022-11-14T03:34:52.592Z,6.49
2022-11-14T03:37:18.970Z,6.48
2022-11-14T03:39:45.322Z,6.36
2022-11-14T03:42:11.599Z,6.39
2022-11-14T03:44:37.888Z,6.37
2022-11-14T03:47:04.200Z,6.33
2022-11-14T03:49:30.581Z,6.37
2022-11-14T03:51:56.877Z,6.41
2022-11-14T03:54:23.165Z,6.42
2022-11-14T03:56:49.444Z,6.44
2022-11-14T03:59:15.798Z,6.39
2022-11-14T04:01:42.202Z,6.35
2022-11-14T04:04:08.851Z,6.41
2022-11-14T04:06:35.215Z,6.37
2022-11-14T04:09:01.568Z,6.39
2022-11-14T04:11:27.905Z,6.45
2022-11-14T04:13:54.227Z,6.42
2022-11-14T04:16:20.652Z,6.30
2022-11-14T04:18:46.974Z,6.24
2022-11-14T04:21:13.259Z,6.30
2022-11-14T04:23:39.539Z,6.26
2022-11-14T04:26:05.902Z,6.20
2022-11-14T04:28:32.548Z,6.25
2022-11-14T04:31:00.271Z,6.19
2022-11-14T04:33:27.080Z,6.24
2022-11-14T04:35:53.457Z,6.27
2022-11-14T04:38:19.917Z,6.30
2022-11-14T04:40:53.119Z,6.31
2022-11-14T04:43:20.927Z,6.21
2022-11-14T04:45:47.285Z,6.23
2022-11-14T04:48:13.793Z,6.22
2022-11-14T04:50:40.105Z,6.23
2022-11-14T04:53:06.378Z,6.12
2022-11-14T04:55:33.103Z,6.10
2022-11-14T04:57:59.602Z,6.16
2022-11-14T05:00:27.248Z,6.21
2022-11-14T05:02:53.533Z,6.16
2022-11-14T05:05:19.857Z,6.13
2022-11-14T05:07:46.133Z,6.14
2022-11-14T05:10:12.418Z,6.17
2022-11-14T05:12:38.708Z,6.18
2022-11-14T05:15:05.301Z,6.12
2022-11-14T05:17:31.581Z,6.16
2022-11-14T05:19:57.897Z,6.12
2022-11-14T05:22:24.266Z,6.08
2022-11-14T05:24:50.544Z,6.09
2022-11-14T05:27:16.865Z,6.12
2022-11-14T05:29:43.210Z,6.13
2022-11-14T05:32:15.097Z,6.11
2022-11-14T05:34:42.505Z,6.06
2022-11-14T05:37:08.787Z,6.08
2022-11-14T05:39:35.069Z,6.08
2022-11-14T05:42:01.352Z,6.13
2022-11-14T05:44:27.697Z,6.14
2022-11-14T05:46:54.064Z,6.16
2022-11-14T05:49:22.051Z,6.01
2022-11-14T05:51:48.575Z,5.99
2022-11-14T05:54:14.973Z,6.04
2022-11-14T05:56:41.279Z,6.10
2022-11-14T05:59:07.588Z,6.12
2022-11-14T06:01:33.961Z,6.11
2022-11-14T06:04:00.294Z,6.15
2022-11-14T06:06:26.628Z,6.04
2022-11-14T06:08:53.028Z,6.10
2022-11-14T06:11:20.695Z,6.07
2022-11-14T06:13:47.012Z,6.14
2022-11-14T06:16:16.119Z,6.14
2022-11-14T06:18:42.560Z,6.03
2022-11-14T06:21:17.550Z,6.08
2022-11-14T06:23:44.668Z,6.06
2022-11-14T06:26:19.460Z,5.97
2022-11-14T06:28:45.758Z,5.92
2022-11-14T06:31:12.198Z,5.92
2022-11-14T06:33:38.639Z,5.83
2022-11-14T06:36:07.511Z,5.77
2022-11-14T06:38:36.100Z,5.79
2022-11-14T06:41:10.486Z,5.84
2022-11-14T06:43:39.109Z,5.80
2022-11-14T06:46:06.983Z,5.72
2022-11-14T06:48:34.454Z,5.77
2022-11-14T06:51:02.091Z,5.69
2022-11-14T06:53:30.609Z,5.68
2022-11-14T06:56:06.589Z,5.75
2022-11-14T06:58:39.443Z,5.71
2022-11-14T07:01:11.728Z,5.70
2022-11-14T07:03:38.127Z,5.74
2022-11-14T07:06:05.875Z,5.69
2022-11-14T07:08:33.013Z,5.70
2022-11-14T07:11:23.354Z,5.74
2022-11-14T07:13:51.106Z,5.78
2022-11-14T07:16:18.272Z,5.80
2022-11-14T07:18:44.635Z,5.73
2022-11-14T07:21:13.177Z,5.83
2022-11-14T07:23:40.172Z,5.90
2022-11-14T07:26:08.269Z,5.91
2022-11-14T07:28:48.083Z,5.93
2022-11-14T07:31:18.914Z,5.91
2022-11-14T07:33:46.213Z,5.86
2022-11-14T07:36:14.302Z,5.87
2022-11-14T07:38:40.981Z,5.85
2022-11-14T07:41:09.935Z,5.97
2022-11-14T07:43:36.558Z,5.88
2022-11-14T07:46:05.854Z,5.92
2022-11-14T07:48:32.880Z,5.78
2022-11-14T07:51:04.790Z,5.72
2022-11-14T07:53:31.270Z,5.76
2022-11-14T07:56:02.867Z,5.62
2022-11-14T07:58:29.650Z,5.71
2022-11-14T08:00:56.342Z,5.67
2022-11-14T08:03:22.681Z,5.56
2022-11-14T08:05:48.971Z,5.59
2022-11-14T08:08:15.251Z,5.55
2022-11-14T08:10:41.619Z,5.62
2022-11-14T08:13:31.061Z,5.72
2022-11-14T08:15:56.704Z,5.60
2022-11-14T08:18:23.469Z,5.48
2022-11-14T08:20:49.751Z,5.46
2022-11-14T08:23:16.365Z,5.47
2022-11-14T08:25:42.824Z,5.47
2022-11-14T08:28:09.339Z,5.61
2022-11-14T08:30:35.663Z,5.62
2022-11-14T08:33:03.789Z,5.54
2022-11-14T08:35:30.097Z,5.53
2022-11-14T08:37:56.632Z,5.51
2022-11-14T08:40:22.948Z,5.40
2022-11-14T08:42:49.259Z,5.42
2022-11-14T08:45:15.728Z,5.40
2022-11-14T08:47:42.013Z,5.35
2022-11-14T08:50:08.868Z,5.49
2022-11-14T08:52:35.167Z,5.38
2022-11-14T08:55:01.438Z,5.49
2022-11-14T08:57:27.725Z,5.51
2022-11-14T08:59:55.299Z,5.47
2022-11-14T09:02:21.574Z,5.46
2022-11-14T09:04:47.930Z,5.34
2022-11-14T09:07:14.325Z,5.45
2022-11-14T09:09:40.692Z,5.53
2022-11-14T09:12:07.142Z,5.48
2022-11-14T09:14:33.450Z,5.63
2022-11-14T09:17:05.516Z,5.57
2022-11-14T09:19:32.306Z,5.70
2022-11-14T09:21:58.584Z,5.79
2022-11-14T09:24:24.904Z,5.70
2022-11-14T09:26:56.569Z,5.72
2022-11-14T09:29:23.407Z,5.76
2022-11-14T09:31:51.789Z,5.79
2022-11-14T09:34:18.061Z,5.67
2022-11-14T09:36:44.566Z,5.74
2022-11-14T09:39:10.853Z,5.76
2022-11-14T09:41:58.727Z,5.82
2022-11-14T09:44:34.406Z,5.93
2022-11-14T09:47:10.764Z,6.00
2022-11-14T09:49:45.372Z,5.88
2022-11-14T09:52:35.027Z,5.90
2022-11-14T09:55:10.587Z,5.93
2022-11-14T09:57:37.159Z,6.08
2022-11-14T10:00:14.590Z,6.15
2022-11-14T10:03:11.379Z,6.09
2022-11-14T10:06:01.739Z,6.03
2022-11-14T10:08:54.274Z,6.09
2022-11-14T10:11:39.135Z,6.13
2022-11-14T10:14:48.779Z,6.14
2022-11-14T10:17:21.009Z,6.11
2022-11-14T10:20:02.390Z,6.20
2022-11-14T10:22:49.749Z,6.30
2022-11-14T10:25:24.470Z,6.34
2022-11-14T10:28:12.687Z,6.33
2022-11-14T10:30:44.452Z,6.38
2022-11-14T10:33:32.071Z,6.32
2022-11-14T10:36:35.225Z,6.32
2022-11-14T10:39:04.303Z,6.45
2022-11-14T10:44:24.361Z,6.60
2022-11-14T10:46:56.196Z,6.61
2022-11-14T10:49:25.179Z,6.66
2022-11-14T10:51:59.540Z,6.73
2022-11-14T10:54:38.287Z,6.88
2022-11-14T10:57:17.972Z,6.82
2022-11-14T10:59:44.358Z,6.82
2022-11-14T11:02:11.597Z,6.92
2022-11-14T11:04:42.516Z,6.90
2022-11-14T11:07:08.833Z,7.06
2022-11-14T11:09:58.446Z,6.94
2022-11-14T11:12:47.538Z,6.89
2022-11-14T11:15:40.557Z,6.96
2022-11-14T11:18:26.838Z,7.16
2022-11-14T11:21:14.281Z,7.15
2022-11-14T11:23:57.492Z,7.35
2022-11-14T11:26:28.439Z,7.29
2022-11-14T11:29:01.974Z,7.23
2022-11-14T11:31:28.608Z,7.24
2022-11-14T11:33:55.244Z,7.31
2022-11-14T11:36:24.785Z,7.28
2022-11-14T11:38:51.260Z,7.29
2022-11-14T11:42:07.238Z,7.46
2022-11-14T11:44:20.225Z,7.46
2022-11-14T11:46:57.321Z,7.56
2022-11-14T11:49:37.911Z,7.51
2022-11-14T11:52:13.657Z,7.45
2022-11-14T11:54:52.391Z,7.46
2022-11-14T11:57:28.141Z,7.43
2022-11-14T12:00:05.596Z,7.48
2022-11-14T12:02:32.211Z,7.57
2022-11-14T12:05:00.750Z,7.66
2022-11-14T12:07:58.019Z,7.69
2022-11-14T12:10:28.805Z,7.75
2022-11-14T12:13:01.060Z,7.80
2022-11-14T12:15:36.170Z,7.86
2022-11-14T12:18:14.057Z,7.92
2022-11-14T12:21:08.535Z,7.95
2022-11-14T12:23:56.899Z,7.94
2022-11-14T12:26:51.214Z,7.98
2022-11-14T12:29:31.205Z,8.02
2022-11-14T12:32:04.289Z,8.06
2022-11-14T12:34:34.444Z,8.11
2022-11-14T12:37:15.449Z,8.20
2022-11-14T12:39:41.996Z,8.23
2022-11-14T12:42:14.460Z,8.19
2022-11-14T12:44:41.152Z,8.30
2022-11-14T12:47:07.481Z,8.28
2022-11-14T12:49:49.461Z,8.18
2022-11-14T12:52:40.709Z,8.21
2022-11-14T12:55:22.359Z,8.17
2022-11-14T12:57:57.129Z,8.21
2022-11-14T13:00:23.644Z,8.23
2022-11-14T13:03:09.751Z,8.25
2022-11-14T13:05:38.826Z,8.29
2022-11-14T13:08:12.086Z,8.39
2022-11-14T13:10:40.533Z,8.42
2022-11-14T13:13:31.236Z,8.33
2022-11-14T13:16:18.303Z,8.34
2022-11-14T13:19:13.575Z,8.31
2022-11-14T13:22:11.792Z,8.30
2022-11-14T13:24:59.548Z,8.28
2022-11-14T13:28:05.319Z,8.35
2022-11-14T13:30:59.381Z,8.27
2022-11-14T13:34:21.260Z,8.33
2022-11-14T13:36:54.454Z,8.33
2022-11-14T13:39:50.381Z,8.34
2022-11-14T13:42:29.815Z,8.32
2022-11-14T13:45:31.576Z,8.30
2022-11-14T13:48:23.369Z,8.28
2022-11-14T13:50:55.672Z,8.29
2022-11-14T13:53:28.605Z,8.29
2022-11-14T13:56:09.341Z,8.29
2022-11-14T13:58:46.794Z,8.27
2022-11-14T14:01:40.699Z,8.30
2022-11-14T14:04:38.085Z,8.22
2022-11-14T14:07:11.536Z,8.19
2022-11-14T14:09:50.443Z,8.24
2022-11-14T14:12:46.841Z,8.28
2022-11-14T14:15:27.072Z,8.20
2022-11-14T14:18:10.524Z,8.17
2022-11-14T14:20:48.039Z,8.18
2022-11-14T14:23:46.055Z,8.18
2022-11-14T14:26:33.880Z,8.17
2022-11-14T14:29:19.224Z,8.15
2022-11-14T14:31:45.554Z,8.13
2022-11-14T14:34:31.633Z,8.05
2022-11-14T14:36:58.475Z,8.05
2022-11-14T14:39:27.107Z,7.99
2022-11-14T14:41:58.376Z,8.00
2022-11-14T14:44:38.276Z,8.06
2022-11-14T14:47:29.540Z,7.96
2022-11-14T14:49:56.269Z,7.96
2022-11-14T14:52:35.863Z,7.91
2022-11-14T14:55:04.338Z,7.89
2022-11-14T14:57:30.649Z,7.83
2022-11-14T15:00:08.309Z,7.74
2022-11-14T15:02:34.639Z,7.73
2022-11-14T15:05:02.130Z,7.69
2022-11-14T15:07:30.110Z,7.67
2022-11-14T15:10:01.550Z,7.63
2022-11-14T15:12:31.012Z,7.61
2022-11-14T15:14:59.034Z,7.57
2022-11-14T15:17:25.755Z,7.54
2022-11-14T15:19:53.888Z,7.51
2022-11-14T15:22:22.975Z,7.49
2022-11-14T15:25:14.196Z,7.45
2022-11-14T15:27:54.966Z,7.52
2022-11-14T15:30:34.771Z,7.47
2022-11-14T15:33:03.690Z,7.43
2022-11-14T15:35:35.557Z,7.36
2022-11-14T15:38:42.042Z,7.35
2022-11-14T15:41:23.616Z,7.31
2022-11-14T15:43:52.977Z,7.22
2022-11-14T15:46:35.104Z,7.20
2022-11-14T15:49:07.521Z,7.16
2022-11-14T15:51:48.947Z,7.12
2022-11-14T15:54:30.233Z,7.09
2022-11-14T15:57:18.856Z,7.07
2022-11-14T15:59:45.395Z,7.07
2022-11-14T16:02:21.539Z,7.03
2022-11-14T16:04:49.779Z,7.04
2022-11-14T16:07:17.964Z,7.10
2022-11-14T16:09:45.016Z,7.04
2022-11-14T16:12:11.329Z,7.05
2022-11-14T16:14:37.898Z,7.03
2022-11-14T16:17:04.929Z,6.99
2022-11-14T16:19:31.307Z,6.95
2022-11-14T16:22:02.513Z,6.96
2022-11-14T16:24:34.026Z,6.91
2022-11-14T16:27:00.729Z,6.88
2022-11-14T16:29:27.093Z,6.89
2022-11-14T16:31:55.044Z,6.92
2022-11-14T16:34:25.820Z,6.92
2022-11-14T16:36:58.920Z,6.94
2022-11-14T16:39:25.457Z,6.93
2022-11-14T16:41:51.758Z,6.94
2022-11-14T16:44:18.465Z,6.89
2022-11-14T16:46:45.671Z,6.85
2022-11-14T16:49:16.527Z,6.80
2022-11-14T16:51:49.054Z,6.78
2022-11-14T16:54:19.955Z,6.82
2022-11-14T16:56:47.357Z,6.78
2022-11-14T16:59:13.710Z,6.74
2022-11-14T17:01:40.319Z,6.75
2022-11-14T17:04:06.689Z,6.78
2022-11-14T17:06:33.595Z,6.76
2022-11-14T17:09:00.647Z,6.76
2022-11-14T17:11:27.447Z,6.73
2022-11-14T17:13:55.098Z,6.75
2022-11-14T17:16:21.386Z,6.73
2022-11-14T17:18:52.497Z,6.75
2022-11-14T17:21:18.779Z,6.74
2022-11-14T17:23:45.167Z,6.79
2022-11-14T17:26:13.176Z,6.77
2022-11-14T17:28:40.448Z,6.71
2022-11-14T17:31:08.199Z,6.77
2022-11-14T17:33:35.462Z,6.72
2022-11-14T17:36:09.870Z,6.73
2022-11-14T17:38:38.319Z,6.71
2022-11-14T17:41:08.082Z,6.73
2022-11-14T17:43:39.189Z,6.71
2022-11-14T17:46:09.872Z,6.65
2022-11-14T17:48:40.442Z,6.64
2022-11-14T17:51:10.247Z,6.62
2022-11-14T17:53:37.464Z,6.59
2022-11-14T17:56:04.158Z,6.60
2022-11-14T17:58:31.949Z,6.59
2022-11-14T18:00:59.014Z,6.60
2022-11-14T18:03:26.959Z,6.53
2022-11-14T18:05:55.903Z,6.50
2022-11-14T18:08:22.202Z,6.50
2022-11-14T18:10:48.497Z,6.47
2022-11-14T18:13:14.970Z,6.42
2022-11-14T18:15:41.263Z,6.43
2022-11-14T18:18:07.581Z,6.36
2022-11-14T18:20:37.003Z,6.32
2022-11-14T18:23:03.284Z,6.33
2022-11-14T18:25:29.889Z,6.36
2022-11-14T18:27:56.170Z,6.32
2022-11-14T18:33:09.173Z,6.26
2022-11-14T18:35:35.452Z,6.28
2022-11-14T18:38:02.146Z,6.22
2022-11-14T18:40:28.431Z,6.25
2022-11-14T18:42:54.700Z,6.21
2022-11-14T18:45:21.027Z,6.21
2022-11-14T18:47:47.351Z,6.20
2022-11-14T18:50:14.149Z,6.25
2022-11-14T18:52:40.477Z,6.23
2022-11-14T18:55:07.877Z,6.19
2022-11-14T18:57:34.227Z,6.11
2022-11-14T19:00:00.510Z,6.13
2022-11-14T19:02:26.877Z,6.13
2022-11-14T19:04:53.185Z,6.04
2022-11-14T19:07:19.672Z,6.05
2022-11-14T19:09:46.060Z,6.01
2022-11-14T19:12:18.222Z,6.01
2022-11-14T19:14:46.110Z,6.00
2022-11-14T19:17:13.429Z,6.05
2022-11-14T19:19:39.727Z,6.04
2022-11-14T19:22:06.068Z,6.04
2022-11-14T19:24:32.560Z,6.04
2022-11-14T19:26:59.018Z,5.99
2022-11-14T19:29:25.399Z,5.99
2022-11-14T19:31:53.150Z,5.98
2022-11-14T19:34:19.461Z,5.95
2022-11-14T19:36:59.562Z,5.98
2022-11-14T19:39:26.533Z,6.00
2022-11-14T19:41:52.890Z,6.00
2022-11-14T19:44:19.169Z,5.98
2022-11-14T19:46:47.739Z,5.94
2022-11-14T19:49:14.642Z,5.92
2022-11-14T19:51:40.911Z,5.89
2022-11-14T19:54:10.523Z,5.94
2022-11-14T19:56:36.946Z,5.98
2022-11-14T19:59:07.291Z,5.94
2022-11-14T20:01:37.742Z,5.98
2022-11-14T20:04:04.195Z,5.92
2022-11-14T20:06:34.013Z,5.92
2022-11-14T20:09:02.423Z,5.95
2022-11-14T20:11:30.494Z,5.98
2022-11-14T20:13:58.273Z,5.96
2022-11-14T20:16:28.108Z,5.99
2022-11-14T20:18:59.127Z,5.97
2022-11-14T20:21:27.247Z,5.90
2022-11-14T20:23:54.110Z,5.93
2022-11-14T20:26:22.182Z,5.90
2022-11-14T20:28:51.818Z,5.87
2022-11-14T20:31:24.133Z,5.85
2022-11-14T20:33:53.170Z,5.80
2022-11-14T20:36:22.182Z,5.78
2022-11-14T20:38:49.315Z,5.74
2022-11-14T20:41:16.511Z,5.77
2022-11-14T20:43:43.355Z,5.72
2022-11-14T20:46:18.799Z,5.73
2022-11-14T20:48:46.073Z,5.74
2022-11-14T20:51:24.035Z,5.72
2022-11-14T20:53:52.671Z,5.72
2022-11-14T20:56:19.804Z,5.77
2022-11-14T20:58:48.250Z,5.68
2022-11-14T21:01:15.679Z,5.74
2022-11-14T21:03:42.327Z,5.71
2022-11-14T21:06:11.122Z,5.71
2022-11-14T21:08:38.306Z,5.73
2022-11-14T21:11:07.539Z,5.72
2022-11-14T21:13:54.249Z,5.74
2022-11-14T21:16:21.974Z,5.76
2022-11-14T21:18:48.452Z,5.74
2022-11-14T21:21:19.819Z,5.69
2022-11-14T21:23:47.619Z,5.63
2022-11-14T21:26:19.786Z,5.70
2022-11-14T21:28:49.023Z,5.72
2022-11-14T21:31:24.641Z,5.70
2022-11-14T21:33:54.558Z,5.69
2022-11-14T21:39:07.546Z,5.59
2022-11-14T21:41:33.986Z,5.70
2022-11-14T21:44:02.314Z,5.67
2022-11-14T21:46:28.832Z,5.63
2022-11-14T21:48:56.804Z,5.58
2022-11-14T21:51:25.668Z,5.59
2022-11-14T21:54:00.108Z,5.61
2022-11-14T21:56:28.877Z,5.64
2022-11-14T21:59:14.928Z,5.65
2022-11-14T22:02:05.748Z,5.64
2022-11-14T22:04:32.846Z,5.60
2022-11-14T22:07:01.639Z,5.62
2022-11-14T22:09:28.630Z,5.63
2022-11-14T22:11:55.564Z,5.63
2022-11-14T22:14:22.137Z,5.59
2022-11-14T22:16:48.486Z,5.56
2022-11-14T22:19:14.781Z,5.64
2022-11-14T22:21:41.057Z,5.61
2022-11-14T22:24:07.372Z,5.59
2022-11-14T22:26:39.695Z,5.57
2022-11-14T22:29:07.087Z,5.54
2022-11-14T22:31:33.620Z,5.54
2022-11-14T22:33:59.926Z,5.51
2022-11-14T22:36:27.218Z,5.54
2022-11-14T22:38:55.519Z,5.55
2022-11-14T22:41:28.970Z,5.51
2022-11-14T22:43:59.011Z,5.48
2022-11-14T22:46:26.984Z,5.55
2022-11-14T22:48:53.296Z,5.54
2022-11-14T22:51:21.438Z,5.50
2022-11-14T22:53:50.091Z,5.51
2022-11-14T22:56:18.491Z,5.48
2022-11-14T22:58:45.561Z,5.41
2022-11-14T23:01:13.227Z,5.43
2022-11-14T23:03:40.655Z,5.43
2022-11-14T23:06:12.278Z,5.41
2022-11-14T23:08:39.045Z,5.36
2022-11-14T23:11:12.735Z,5.35
2022-11-14T23:13:41.894Z,5.33
2022-11-14T23:16:09.897Z,5.35
2022-11-14T23:18:36.381Z,5.35
2022-11-14T23:21:07.841Z,5.38
2022-11-14T23:23:34.573Z,5.35
2022-11-14T23:26:12.926Z,5.31
2022-11-14T23:28:39.644Z,5.31
2022-11-14T23:31:06.557Z,5.36
2022-11-14T23:33:33.527Z,5.29
2022-11-14T23:36:00.151Z,5.33
2022-11-14T23:38:26.700Z,5.31
2022-11-14T23:41:00.965Z,5.33
2022-11-14T23:43:28.700Z,5.29
2022-11-14T23:45:55.626Z,5.29
2022-11-14T23:48:22.731Z,5.33
2022-11-14T23:50:54.358Z,5.26
2022-11-14T23:53:21.603Z,5.29
2022-11-14T23:55:54.740Z,5.24
2022-11-14T23:58:22.273Z,5.20
